Time;durP1;ratioP1;P1;durP2;ratioP2;P2;SDS_P1;SDS_P2;PMS_P1;PMS_P2;Temp;Humidity;BMP_temperature;BMP_pressure;BME280_temperature;BME280_humidity;BME280_pressure;Samples;Min_cycle;Max_cycle;Signal;HPM_P1;HPM_P2
2022/06/07 00:00:19;;;;;;;21.83;9.52;;;11.90;99.90;;;;;;4947454;28;216533;-75
2022/06/07 00:02:45;;;;;;;19.88;9.23;;;11.80;99.90;;;;;;5018962;28;20049;-75
2022/06/07 00:05:12;;;;;;;18.77;9.68;;;11.90;99.90;;;;;;4949318;28;204633;-74
2022/06/07 00:07:38;;;;;;;20.08;9.93;;;11.80;99.90;;;;;;5015976;28;20065;-74
2022/06/07 00:10:05;;;;;;;17.63;8.57;;;11.80;99.90;;;;;;4956624;28;205412;-77
2022/06/07 00:12:32;;;;;;;23.08;9.32;;;11.90;99.90;;;;;;5026524;28;20048;-74
2022/06/07 00:14:58;;;;;;;23.25;9.55;;;11.90;99.90;;;;;;4964925;28;150937;-74
2022/06/07 00:17:24;;;;;;;20.80;9.45;;;11.90;99.90;;;;;;5017118;28;20171;-74
2022/06/07 00:19:50;;;;;;;18.63;9.68;;;11.90;99.90;;;;;;4938040;28;209448;-74
2022/06/07 00:22:16;;;;;;;18.83;9.60;;;12.00;99.90;;;;;;5032891;28;20096;-75
2022/06/07 00:24:43;;;;;;;20.52;9.88;;;12.00;99.90;;;;;;4953335;28;207738;-77
2022/06/07 00:27:10;;;;;;;26.38;10.85;;;11.90;99.90;;;;;;5015180;28;20050;-74
2022/06/07 00:29:37;;;;;;;21.58;10.45;;;11.90;99.90;;;;;;4977117;28;209254;-73
2022/06/07 00:32:05;;;;;;;19.13;9.70;;;11.90;99.90;;;;;;5027528;28;20068;-74
2022/06/07 00:34:32;;;;;;;21.48;10.48;;;11.90;99.90;;;;;;4956489;28;220753;-75
2022/06/07 00:37:00;;;;;;;21.33;10.85;;;12.00;99.90;;;;;;5010997;28;20399;-75
2022/06/07 00:39:26;;;;;;;19.63;10.18;;;12.00;99.90;;;;;;4969314;28;105610;-75
2022/06/07 00:41:52;;;;;;;23.60;11.13;;;12.00;99.90;;;;;;5031075;28;20041;-75
2022/06/07 00:44:21;;;;;;;20.48;10.43;;;12.00;99.90;;;;;;4966473;28;217514;-75
2022/06/07 00:46:59;;;;;;;21.60;10.48;;;12.00;99.90;;;;;;5037319;28;20698;-74
2022/06/07 00:49:34;;;;;;;22.70;11.13;;;12.00;99.90;;;;;;4962944;28;209069;-75
2022/06/07 00:52:01;;;;;;;19.50;10.10;;;12.00;99.90;;;;;;5026040;28;20049;-75
2022/06/07 00:54:30;;;;;;;25.10;11.18;;;12.10;99.90;;;;;;4969495;28;211931;-76
2022/06/07 00:56:57;;;;;;;25.23;12.07;;;12.10;99.90;;;;;;4998311;28;20390;-75
2022/06/07 00:59:25;;;;;;;22.02;11.55;;;12.10;99.90;;;;;;4953768;28;246325;-75
2022/06/07 01:01:51;;;;;;;19.63;11.77;;;12.10;99.90;;;;;;5032519;28;20029;-75
2022/06/07 01:04:18;;;;;;;24.58;12.57;;;12.10;99.90;;;;;;4948776;28;231983;-75
2022/06/07 01:12:14;;;;;;;25.83;12.82;;;12.10;99.90;;;;;;5021261;28;20447;-76
2022/06/07 01:14:40;;;;;;;22.15;12.27;;;12.20;99.90;;;;;;4953525;28;225084;-75
2022/06/07 01:17:06;;;;;;;21.13;11.90;;;12.20;99.90;;;;;;5016418;28;20049;-76
2022/06/07 01:19:32;;;;;;;23.85;13.32;;;12.20;99.90;;;;;;4951134;28;244250;-75
2022/06/07 01:21:58;;;;;;;23.25;12.60;;;12.20;99.90;;;;;;5007316;28;20060;-75
2022/06/07 01:24:24;;;;;;;23.58;12.70;;;12.20;99.90;;;;;;4961577;28;213245;-75
2022/06/07 01:26:52;;;;;;;21.95;12.52;;;12.30;99.90;;;;;;5009436;28;20052;-74
2022/06/07 01:29:19;;;;;;;22.88;12.30;;;12.30;99.90;;;;;;4964658;28;215151;-75
2022/06/07 01:31:45;;;;;;;19.27;11.15;;;12.30;99.90;;;;;;5007399;28;20149;-75
2022/06/07 01:34:11;;;;;;;22.40;11.57;;;12.30;99.90;;;;;;4970251;28;209699;-75
2022/06/07 01:36:37;;;;;;;19.50;11.98;;;12.30;99.90;;;;;;5013004;28;20076;-75
2022/06/07 01:41:55;;;;;;;18.90;11.63;;;12.30;99.90;;;;;;5017292;28;20470;-76
2022/06/07 01:44:26;;;;;;;20.75;12.40;;;12.30;99.90;;;;;;4959043;28;212627;-75
2022/06/07 01:46:53;;;;;;;20.88;11.45;;;12.30;99.90;;;;;;5016176;28;20068;-75
2022/06/07 01:49:20;;;;;;;20.33;11.45;;;12.30;99.90;;;;;;4969236;28;207267;-74
2022/06/07 01:51:46;;;;;;;19.85;11.07;;;12.30;99.90;;;;;;5028885;28;20060;-77
2022/06/07 01:54:14;;;;;;;22.23;11.55;;;12.40;99.90;;;;;;4960102;28;183826;-73
2022/06/07 01:56:40;;;;;;;23.15;12.02;;;12.40;99.90;;;;;;5026736;28;20030;-73
2022/06/07 01:59:07;;;;;;;25.58;12.80;;;12.40;99.90;;;;;;4958207;28;238957;-75
2022/06/07 02:01:33;;;;;;;20.08;12.20;;;12.40;99.90;;;;;;5013203;28;20053;-74
2022/06/07 02:03:59;;;;;;;19.25;11.75;;;12.40;99.90;;;;;;4972809;28;214791;-74
2022/06/07 02:06:26;;;;;;;22.25;11.35;;;12.40;99.90;;;;;;4951096;28;217642;-75
2022/06/07 02:08:52;;;;;;;21.55;11.93;;;12.40;99.90;;;;;;4977448;28;209692;-74
2022/06/07 02:11:22;;;;;;;19.10;12.70;;;12.40;99.90;;;;;;5006645;28;20045;-74
2022/06/07 02:13:48;;;;;;;20.13;11.93;;;12.40;99.90;;;;;;4972199;28;213835;-73
2022/06/07 02:16:16;;;;;;;25.38;10.95;;;12.40;99.90;;;;;;4990977;28;62497;-73
2022/06/07 02:18:42;;;;;;;21.27;11.77;;;12.40;99.90;;;;;;4978679;28;218012;-75
2022/06/07 02:21:09;;;;;;;17.85;11.13;;;12.40;99.90;;;;;;4989907;28;267983;-76
2022/06/07 02:23:37;;;;;;;18.90;11.67;;;12.40;99.90;;;;;;4963875;28;227567;-74
2022/06/07 02:26:12;;;;;;;20.15;10.40;;;12.40;99.90;;;;;;5021261;28;149336;-74
2022/06/07 02:28:42;;;;;;;20.63;11.63;;;12.50;99.90;;;;;;4977454;28;212843;-74
2022/06/07 02:31:10;;;;;;;21.20;11.68;;;12.50;99.90;;;;;;5023950;28;123299;-77
2022/06/07 02:33:38;;;;;;;21.15;10.88;;;12.50;99.90;;;;;;4975225;28;216128;-74
2022/06/07 02:36:06;;;;;;;16.98;10.73;;;12.50;99.90;;;;;;4999737;28;55136;-75
2022/06/07 02:38:33;;;;;;;22.95;11.43;;;12.50;99.90;;;;;;4971581;28;209648;-74
2022/06/07 02:41:03;;;;;;;16.00;9.77;;;12.50;99.90;;;;;;4996524;28;52763;-75
2022/06/07 02:43:30;;;;;;;22.23;10.40;;;12.40;99.90;;;;;;4999406;28;213759;-74
2022/06/07 02:45:57;;;;;;;21.17;10.73;;;12.50;99.90;;;;;;5006518;28;67100;-75
2022/06/07 02:48:23;;;;;;;23.60;11.07;;;12.50;99.90;;;;;;5025030;28;20049;-75
2022/06/07 02:50:49;;;;;;;20.63;11.27;;;12.50;99.90;;;;;;4976074;28;208093;-75
2022/06/07 02:53:15;;;;;;;22.42;11.48;;;12.50;99.90;;;;;;5024790;28;20076;-76
2022/06/07 02:55:41;;;;;;;18.75;10.55;;;12.50;99.90;;;;;;4955477;28;219916;-76
2022/06/07 02:58:07;;;;;;;21.00;11.02;;;12.50;99.90;;;;;;5020448;28;20074;-78
2022/06/07 03:00:34;;;;;;;20.65;11.38;;;12.50;99.90;;;;;;4958507;28;211751;-74
2022/06/07 03:03:00;;;;;;;21.27;11.75;;;12.50;99.90;;;;;;5020222;28;20080;-74
2022/06/07 03:05:26;;;;;;;23.25;11.93;;;12.50;99.90;;;;;;4932719;28;209763;-75
2022/06/07 03:07:52;;;;;;;25.98;11.88;;;12.50;99.90;;;;;;5019608;28;20049;-75
2022/06/07 03:10:18;;;;;;;20.10;12.23;;;12.50;99.90;;;;;;4959366;28;134482;-75
2022/06/07 03:12:45;;;;;;;21.90;13.07;;;12.50;99.90;;;;;;5021553;28;20071;-75
2022/06/07 03:15:12;;;;;;;23.30;12.30;;;12.50;99.90;;;;;;4954017;28;206052;-75
2022/06/07 03:17:39;;;;;;;23.30;13.38;;;12.50;99.90;;;;;;5023718;28;20056;-75
2022/06/07 03:20:08;;;;;;;21.77;13.15;;;12.50;99.90;;;;;;4953525;28;215217;-75
2022/06/07 03:22:35;;;;;;;23.10;12.95;;;12.50;99.90;;;;;;5017001;28;20053;-74
2022/06/07 03:25:05;;;;;;;22.85;13.73;;;12.50;99.90;;;;;;4958959;28;205695;-75
2022/06/07 03:27:36;;;;;;;20.73;13.20;;;12.50;99.90;;;;;;5021557;28;20551;-75
2022/06/07 03:30:09;;;;;;;21.75;12.70;;;12.50;99.90;;;;;;4950380;28;212041;-74
2022/06/07 03:32:36;;;;;;;24.73;12.95;;;12.50;99.90;;;;;;5028401;28;20049;-74
2022/06/07 03:35:03;;;;;;;24.05;13.25;;;12.60;99.90;;;;;;4951081;28;234180;-74
2022/06/07 03:37:29;;;;;;;21.70;12.45;;;12.60;99.90;;;;;;5018857;28;20380;-74
2022/06/07 03:39:55;;;;;;;24.67;12.95;;;12.50;99.90;;;;;;4940156;28;218317;-75
2022/06/07 03:42:21;;;;;;;21.67;13.38;;;12.60;99.90;;;;;;5017394;28;20129;-74
2022/06/07 03:44:50;;;;;;;23.30;12.80;;;12.60;99.90;;;;;;4959563;28;204712;-73
2022/06/07 03:47:18;;;;;;;19.23;12.43;;;12.60;99.90;;;;;;5014752;28;20045;-76
2022/06/07 03:49:46;;;;;;;22.80;12.45;;;12.60;99.90;;;;;;4952267;28;206226;-73
2022/06/07 03:52:14;;;;;;;19.88;11.55;;;12.60;99.90;;;;;;4996809;28;20073;-73
2022/06/07 03:54:41;;;;;;;20.05;13.05;;;12.60;99.90;;;;;;4965318;28;211611;-73
2022/06/07 03:57:08;;;;;;;19.40;12.35;;;12.60;99.90;;;;;;5032906;28;20045;-73
2022/06/07 03:59:35;;;;;;;21.08;12.65;;;12.60;99.90;;;;;;4996180;28;229900;-73
2022/06/07 04:02:01;;;;;;;18.88;12.48;;;12.60;99.90;;;;;;5043271;28;20049;-73
2022/06/07 04:04:27;;;;;;;21.27;12.57;;;12.60;99.90;;;;;;4962200;28;233984;-73
2022/06/07 04:09:43;;;;;;;20.80;12.00;;;12.60;99.90;;;;;;4960727;28;205957;-74
2022/06/07 04:12:11;;;;;;;21.15;13.02;;;12.60;99.90;;;;;;5034299;28;20057;-74
2022/06/07 04:14:39;;;;;;;21.48;13.45;;;12.60;99.90;;;;;;4954803;28;237584;-74
2022/06/07 04:17:06;;;;;;;21.67;12.70;;;12.60;99.90;;;;;;5006900;28;20053;-75
2022/06/07 04:19:36;;;;;;;22.70;13.45;;;12.60;99.90;;;;;;4963379;28;205761;-76
2022/06/07 04:22:03;;;;;;;21.35;13.73;;;12.60;99.90;;;;;;5027079;28;20108;-74
2022/06/07 04:24:30;;;;;;;23.15;13.07;;;12.60;99.90;;;;;;4957105;28;160048;-74
2022/06/07 04:26:57;;;;;;;25.42;14.23;;;12.60;99.90;;;;;;5006674;28;20048;-75
2022/06/07 04:29:24;;;;;;;21.83;13.90;;;12.60;99.90;;;;;;4931635;28;214041;-74
2022/06/07 04:31:50;;;;;;;22.52;14.43;;;12.60;99.90;;;;;;5004644;28;20053;-74
2022/06/07 04:34:18;;;;;;;23.00;14.07;;;12.60;99.90;;;;;;4947945;28;209344;-75
2022/06/07 04:36:44;;;;;;;23.90;14.25;;;12.60;99.90;;;;;;4991848;28;20838;-77
2022/06/07 04:39:11;;;;;;;21.33;14.50;;;12.60;99.90;;;;;;4943223;28;237167;-77
2022/06/07 04:41:38;;;;;;;23.88;14.18;;;12.60;99.90;;;;;;5011877;28;20546;-76
2022/06/07 04:44:05;;;;;;;27.08;14.60;;;12.50;99.90;;;;;;4963837;28;207109;-75
2022/06/07 04:46:31;;;;;;;22.65;15.43;;;12.50;99.90;;;;;;5024581;28;20064;-76
2022/06/07 04:48:58;;;;;;;23.77;15.07;;;12.40;99.90;;;;;;4983120;28;210497;-77
2022/06/07 04:51:31;;;;;;;25.17;14.57;;;12.40;99.90;;;;;;4998185;28;20064;-75
2022/06/07 04:54:00;;;;;;;24.38;14.32;;;12.40;99.90;;;;;;4972665;28;215290;-77
2022/06/07 04:56:30;;;;;;;29.77;15.63;;;12.30;99.90;;;;;;5005037;28;178792;-74
2022/06/07 04:58:58;;;;;;;24.48;14.82;;;12.30;99.90;;;;;;4981723;28;206395;-75
2022/06/07 05:01:28;;;;;;;25.65;15.60;;;12.30;99.90;;;;;;5029008;28;20080;-75
2022/06/07 05:03:54;;;;;;;24.00;14.15;;;12.30;99.90;;;;;;4978160;28;208877;-75
2022/06/07 05:06:30;;;;;;;23.52;13.70;;;12.30;99.90;;;;;;4968725;28;227094;-75
2022/06/07 05:09:01;;;;;;;22.58;14.25;;;12.30;99.90;;;;;;4972327;28;212221;-73
2022/06/07 05:11:28;;;;;;;24.20;14.13;;;12.30;99.90;;;;;;4996742;28;20060;-74
2022/06/07 05:13:59;;;;;;;27.63;15.43;;;12.30;99.90;;;;;;4961047;28;215431;-73
2022/06/07 05:16:25;;;;;;;23.90;14.82;;;12.20;99.90;;;;;;4987348;28;54840;-73
2022/06/07 05:18:53;;;;;;;29.77;16.27;;;12.20;99.90;;;;;;4974418;28;212707;-73
2022/06/07 05:21:21;;;;;;;22.92;15.55;;;12.30;99.90;;;;;;4998384;28;228629;-73
2022/06/07 05:23:47;;;;;;;27.90;16.33;;;12.20;99.90;;;;;;4979913;28;211859;-73
2022/06/07 05:26:25;;;;;;;29.52;16.52;;;12.20;99.90;;;;;;4997657;28;242723;-70
2022/06/07 05:28:52;;;;;;;25.20;14.77;;;12.20;99.90;;;;;;4975685;28;205844;-72
2022/06/07 05:31:18;;;;;;;22.75;13.07;;;12.10;99.90;;;;;;4991557;28;148923;-72
2022/06/07 05:33:44;;;;;;;28.02;14.57;;;12.10;99.90;;;;;;4981412;28;213963;-70
2022/06/07 05:36:10;;;;;;;21.42;11.80;;;12.00;99.90;;;;;;5020248;28;236690;-71
2022/06/07 05:38:36;;;;;;;19.25;11.60;;;11.90;99.90;;;;;;4969685;28;211460;-71
2022/06/07 05:41:04;;;;;;;19.25;10.73;;;11.90;99.90;;;;;;5023478;28;124528;-71
2022/06/07 05:43:30;;;;;;;16.90;9.77;;;11.90;99.90;;;;;;4996332;28;221628;-72
2022/06/07 05:45:57;;;;;;;16.33;7.47;;;11.90;99.90;;;;;;4999381;28;59862;-73
2022/06/07 05:48:24;;;;;;;14.93;6.97;;;11.80;99.90;;;;;;5018861;28;20038;-72
2022/06/07 05:50:50;;;;;;;14.40;6.45;;;11.70;99.90;;;;;;4942480;28;205743;-74
2022/06/07 05:53:18;;;;;;;12.38;5.75;;;11.70;99.90;;;;;;5018162;28;20065;-73
2022/06/07 05:55:44;;;;;;;15.07;5.55;;;11.70;99.90;;;;;;4934435;28;214781;-73
2022/06/07 05:58:11;;;;;;;13.55;5.43;;;11.70;99.90;;;;;;5020163;28;20511;-73
2022/06/07 06:00:39;;;;;;;13.13;5.53;;;11.70;99.90;;;;;;4956472;28;207949;-73
2022/06/07 06:03:06;;;;;;;11.43;4.60;;;11.60;99.90;;;;;;5038110;28;20046;-72
2022/06/07 06:05:33;;;;;;;11.32;5.00;;;11.60;99.90;;;;;;4928295;28;213483;-74
2022/06/07 06:10:45;;;;;;;11.95;4.70;;;11.60;99.90;;;;;;4957839;28;213158;-74
2022/06/07 06:13:11;;;;;;;11.10;4.53;;;11.60;99.90;;;;;;5021198;28;20038;-72
2022/06/07 06:15:37;;;;;;;13.23;4.82;;;11.60;99.90;;;;;;4973430;28;233796;-73
2022/06/07 06:18:05;;;;;;;12.52;4.80;;;11.60;99.90;;;;;;5021843;28;20057;-73
2022/06/07 06:20:32;;;;;;;13.02;5.10;;;11.60;99.90;;;;;;4960165;28;211967;-74
2022/06/07 06:22:58;;;;;;;11.27;4.90;;;11.70;99.90;;;;;;5034948;28;20049;-73
2022/06/07 06:25:24;;;;;;;16.65;5.63;;;11.70;99.90;;;;;;4942639;28;206520;-73
2022/06/07 06:27:51;;;;;;;15.73;5.85;;;11.70;99.90;;;;;;5022606;28;20072;-74
2022/06/07 06:30:17;;;;;;;11.82;4.90;;;11.70;99.90;;;;;;4965282;28;205335;-73
2022/06/07 06:32:43;;;;;;;16.70;5.75;;;11.80;99.90;;;;;;5014680;28;20530;-74
2022/06/07 06:35:10;;;;;;;15.60;5.75;;;11.80;99.90;;;;;;4954073;28;209129;-72
2022/06/07 06:37:36;;;;;;;14.60;6.18;;;11.80;99.90;;;;;;5021407;28;20079;-73
2022/06/07 06:40:03;;;;;;;13.07;6.13;;;11.90;99.90;;;;;;4961781;28;228288;-73
2022/06/07 06:42:29;;;;;;;17.23;6.13;;;11.90;99.90;;;;;;5027383;28;20049;-72
2022/06/07 06:44:55;;;;;;;16.60;6.55;;;12.00;99.90;;;;;;4964287;28;218267;-73
2022/06/07 06:47:21;;;;;;;17.23;6.00;;;12.00;99.90;;;;;;5015744;28;20053;-73
2022/06/07 06:49:48;;;;;;;16.45;5.65;;;12.00;99.90;;;;;;4957120;28;209086;-73
2022/06/07 06:52:14;;;;;;;14.93;6.05;;;12.10;99.90;;;;;;5029708;28;20449;-73
2022/06/07 06:54:40;;;;;;;18.55;5.88;;;12.10;99.90;;;;;;4962423;28;193439;-72
2022/06/07 06:57:07;;;;;;;16.75;6.13;;;12.20;99.90;;;;;;5008530;28;20045;-73
2022/06/07 06:59:33;;;;;;;19.55;6.15;;;12.20;99.90;;;;;;4968841;28;236704;-72
2022/06/07 07:01:59;;;;;;;17.00;6.22;;;12.20;99.90;;;;;;5025238;28;20050;-72
2022/06/07 07:04:25;;;;;;;15.18;5.53;;;12.20;99.90;;;;;;4947988;28;212294;-72
2022/06/07 07:06:52;;;;;;;27.52;6.75;;;12.20;99.90;;;;;;5008212;28;20062;-72
2022/06/07 07:09:22;;;;;;;17.58;5.97;;;12.30;99.90;;;;;;4954750;28;206093;-72
2022/06/07 07:11:52;;;;;;;17.42;6.22;;;12.30;99.90;;;;;;5013921;28;20503;-72
2022/06/07 07:14:18;;;;;;;18.80;6.38;;;12.30;99.90;;;;;;4943599;28;214989;-72
2022/06/07 07:16:51;;;;;;;15.98;6.38;;;12.30;99.90;;;;;;5004536;28;20057;-73
2022/06/07 07:19:18;;;;;;;19.77;6.70;;;12.30;99.90;;;;;;4963119;28;214830;-73
2022/06/07 07:21:47;;;;;;;14.90;4.40;;;12.20;99.90;;;;;;5013701;28;20416;-74
2022/06/07 07:24:21;;;;;;;11.88;3.30;;;12.10;99.90;;;;;;4963562;28;205939;-72
2022/06/07 07:26:48;;;;;;;10.57;2.90;;;11.90;99.90;;;;;;4992798;28;20379;-73
2022/06/07 07:29:17;;;;;;;14.63;2.67;;;11.80;99.90;;;;;;4955196;28;207721;-74
2022/06/07 07:31:43;;;;;;;12.50;3.28;;;11.80;99.90;;;;;;5000273;28;20049;-72
2022/06/07 07:34:14;;;;;;;12.32;2.92;;;11.70;99.90;;;;;;4953385;28;215653;-73
2022/06/07 07:36:46;;;;;;;13.93;3.28;;;11.70;99.90;;;;;;5001269;28;20077;-72
2022/06/07 07:39:12;;;;;;;12.40;3.67;;;11.70;99.90;;;;;;4961388;28;205677;-73
2022/06/07 07:41:40;;;;;;;13.20;3.85;;;11.70;99.90;;;;;;5030151;28;20471;-73
2022/06/07 07:44:11;;;;;;;14.82;4.45;;;11.70;99.90;;;;;;4966162;28;212423;-73
2022/06/07 07:46:39;;;;;;;14.48;5.78;;;11.80;99.90;;;;;;5020388;28;20046;-73
2022/06/07 07:49:07;;;;;;;15.00;6.13;;;11.80;99.90;;;;;;4942404;28;205665;-74
2022/06/07 07:51:36;;;;;;;17.92;6.05;;;11.90;99.90;;;;;;5000964;28;20064;-72
2022/06/07 07:54:04;;;;;;;18.38;5.82;;;11.90;99.90;;;;;;4969576;28;210298;-72
2022/06/07 07:56:31;;;;;;;18.33;5.75;;;12.00;99.90;;;;;;5007587;28;20052;-72
2022/06/07 07:58:58;;;;;;;16.58;5.75;;;12.00;99.90;;;;;;4980144;28;215876;-72
2022/06/07 08:01:27;;;;;;;17.02;5.88;;;12.00;99.90;;;;;;4996248;28;180376;-72
2022/06/07 08:03:57;;;;;;;19.42;6.18;;;12.00;99.90;;;;;;4973776;28;205842;-71
2022/06/07 08:06:24;;;;;;;17.15;5.70;;;12.00;99.90;;;;;;4996033;28;170099;-71
2022/06/07 08:08:53;;;;;;;18.98;5.72;;;12.00;99.90;;;;;;4983573;28;168686;-72
2022/06/07 08:11:23;;;;;;;18.83;5.85;;;12.00;99.90;;;;;;4994216;28;224794;-74
2022/06/07 08:13:49;;;;;;;17.50;5.70;;;12.00;99.90;;;;;;4972950;28;214135;-70
2022/06/07 08:16:16;;;;;;;19.48;6.30;;;12.00;99.90;;;;;;5016936;28;49285;-71
2022/06/07 08:18:43;;;;;;;21.90;6.25;;;12.10;99.90;;;;;;4992250;28;212766;-71
2022/06/07 08:21:12;;;;;;;19.00;6.07;;;12.10;99.90;;;;;;5002691;28;209013;-71
2022/06/07 08:23:39;;;;;;;21.93;5.90;;;12.10;99.90;;;;;;4989013;28;221999;-71
2022/06/07 08:26:06;;;;;;;16.95;5.30;;;12.10;99.90;;;;;;5010948;28;163674;-71
2022/06/07 08:28:33;;;;;;;16.30;6.07;;;12.20;99.90;;;;;;4967742;28;214670;-71
2022/06/07 08:31:00;;;;;;;17.42;6.00;;;12.10;99.90;;;;;;4997444;28;212712;-72
2022/06/07 08:39:00;;;;;;;17.33;5.25;;;12.20;99.90;;;;;;4974769;28;214786;-70
2022/06/07 08:41:31;;;;;;;15.98;5.20;;;12.20;99.90;;;;;;5023620;28;72790;-70
2022/06/07 08:44:05;;;;;;;;;;;12.40;99.90;;;;;;4967624;28;213480;-70
2022/06/07 08:46:34;;;;;;;12.73;3.90;;;12.40;99.90;;;;;;4993234;28;19947;-70
2022/06/07 08:49:02;;;;;;;14.50;4.20;;;12.50;99.90;;;;;;4981797;28;204890;-71
2022/06/07 08:51:32;;;;;;;12.40;3.88;;;12.60;99.90;;;;;;4993932;28;20046;-68
2022/06/07 08:54:11;;;;;;;10.02;3.00;;;12.60;99.90;;;;;;4970799;28;212749;-72
2022/06/07 08:56:37;;;;;;;10.40;2.50;;;12.70;99.90;;;;;;5005071;28;20050;-70
2022/06/07 08:59:17;;;;;;;12.93;2.97;;;12.70;99.90;;;;;;4965474;28;210221;-71
2022/06/07 09:02:27;;;;;;;11.23;2.28;;;12.70;99.90;;;;;;5016344;28;20046;-70
2022/06/07 09:04:55;;;;;;;8.57;2.28;;;12.70;99.90;;;;;;4917149;28;206588;-70
2022/06/07 09:07:21;;;;;;;12.35;2.60;;;12.70;99.90;;;;;;4981759;28;20050;-71
2022/06/07 09:12:37;;;;;;;10.05;2.90;;;12.70;99.90;;;;;;4988389;28;20061;-71
2022/06/07 09:15:19;;;;;;;10.63;2.40;;;12.80;99.90;;;;;;4905291;28;215472;-71
2022/06/07 09:17:47;;;;;;;9.23;2.10;;;12.80;99.90;;;;;;4968303;28;20216;-72
2022/06/07 09:20:44;;;;;;;12.68;2.28;;;12.80;99.90;;;;;;4890854;28;240781;-71
2022/06/07 09:23:23;;;;;;;10.27;1.90;;;12.90;99.90;;;;;;4987378;28;20060;-73
2022/06/07 09:25:53;;;;;;;11.32;2.20;;;12.80;99.90;;;;;;4911591;28;207027;-70
2022/06/07 09:28:27;;;;;;;13.20;2.40;;;13.00;99.90;;;;;;4972730;28;20666;-71
2022/06/07 09:31:21;;;;;;;13.57;2.40;;;13.10;99.90;;;;;;4892445;28;212956;-70
2022/06/07 09:33:49;;;;;;;14.48;2.38;;;13.20;99.90;;;;;;4900181;28;211439;-70
2022/06/07 09:36:31;;;;;;;12.20;2.20;;;13.20;99.90;;;;;;4957970;28;31857;-70
2022/06/07 09:39:06;;;;;;;11.40;1.80;;;13.10;99.90;;;;;;4956054;28;216601;-72
2022/06/07 09:41:40;;;;;;;9.43;1.80;;;13.10;99.90;;;;;;4999579;28;20041;-71
2022/06/07 09:44:32;;;;;;;11.02;2.00;;;13.10;99.90;;;;;;4963487;28;209776;-70
2022/06/07 09:47:13;;;;;;;10.00;1.70;;;13.20;99.90;;;;;;5027556;28;20034;-72
2022/06/07 09:49:44;;;;;;;11.07;1.80;;;13.20;99.90;;;;;;4962944;28;187852;-72
2022/06/07 09:52:31;;;;;;;10.68;1.90;;;13.40;99.90;;;;;;5008336;28;20053;-70
2022/06/07 09:55:13;;;;;;;11.25;2.05;;;13.50;99.90;;;;;;4964266;28;227859;-71
2022/06/07 09:57:54;;;;;;;12.10;2.08;;;13.60;99.90;;;;;;5025094;28;20056;-70
2022/06/07 10:00:30;;;;;;;11.63;2.08;;;13.70;99.90;;;;;;4950114;28;211127;-71
2022/06/07 10:03:21;;;;;;;10.48;2.00;;;13.70;99.90;;;;;;5018219;28;20049;-70
2022/06/07 10:06:05;;;;;;;13.35;2.13;;;13.70;99.90;;;;;;4928594;28;220892;-69
2022/06/07 10:09:02;;;;;;;9.85;1.92;;;13.80;99.90;;;;;;4990635;28;211497;-69
2022/06/07 10:11:40;;;;;;;13.15;2.20;;;13.90;99.90;;;;;;5001812;28;20037;-69
2022/06/07 10:14:15;;;;;;;10.85;1.85;;;13.90;99.90;;;;;;4980451;28;213032;-70
2022/06/07 10:16:58;;;;;;;14.13;2.28;;;14.00;99.90;;;;;;5033656;28;20049;-69
2022/06/07 10:19:39;;;;;;;14.55;2.25;;;13.90;99.90;;;;;;4947875;28;232191;-71
2022/06/07 10:22:37;;;;;;;14.20;2.13;;;13.80;99.90;;;;;;5017019;28;20060;-71
2022/06/07 10:25:17;;;;;;;12.60;1.90;;;13.90;99.90;;;;;;4885746;28;221191;-72
2022/06/07 10:27:58;;;;;;;13.90;2.37;;;14.00;99.90;;;;;;4961383;28;20051;-72
2022/06/07 10:30:38;;;;;;;13.05;2.53;;;14.00;99.90;;;;;;4903963;28;242532;-72
2022/06/07 10:33:43;;;;;;;10.40;2.00;;;13.90;99.90;;;;;;4964904;28;20054;-71
2022/06/07 10:36:09;;;;;;;11.00;2.03;;;13.70;99.90;;;;;;4891341;28;205951;-72
2022/06/07 10:38:54;;;;;;;10.27;2.07;;;13.60;99.90;;;;;;4907177;28;208120;-71
2022/06/07 10:41:28;;;;;;;11.63;1.88;;;13.50;99.90;;;;;;4933643;28;20047;-71
2022/06/07 10:44:22;;;;;;;8.95;1.80;;;13.60;99.90;;;;;;4913159;28;205800;-70
2022/06/07 10:46:49;;;;;;;11.52;2.00;;;13.70;99.90;;;;;;4915498;29;20058;-70
2022/06/07 10:49:23;;;;;;;8.55;1.98;;;13.80;99.90;;;;;;4901407;28;213879;-70
2022/06/07 10:52:20;;;;;;;8.18;1.70;;;13.70;99.90;;;;;;4926694;28;20508;-70
2022/06/07 10:55:01;;;;;;;10.18;1.80;;;13.90;99.90;;;;;;4902686;28;211726;-72
2022/06/07 10:57:55;;;;;;;8.98;1.85;;;14.10;99.90;;;;;;4951076;28;20055;-71
2022/06/07 11:00:30;;;;;;;10.63;1.90;;;14.30;99.90;;;;;;4895961;28;210318;-71
2022/06/07 11:03:05;;;;;;;11.30;2.00;;;14.50;99.90;;;;;;5010256;28;20390;-71
2022/06/07 11:09:19;;;;;;;13.02;2.20;;;14.50;99.90;;;;;;5024592;28;20064;-71
2022/06/07 11:11:47;;;;;;;16.48;2.33;;;14.50;99.90;;;;;;4886422;28;56320;-71
2022/06/07 11:14:31;;;;;;;13.20;2.43;;;14.50;99.90;;;;;;4899982;28;212911;-71
2022/06/07 11:17:00;;;;;;;9.82;2.10;;;14.40;99.90;;;;;;4956234;28;20420;-70
2022/06/07 11:19:26;;;;;;;16.48;2.53;;;14.50;99.90;;;;;;4887709;28;206985;-71
2022/06/07 11:22:00;;;;;;;12.50;1.90;;;14.60;99.90;;;;;;4951810;28;20050;-71
2022/06/07 11:24:30;;;;;;;9.52;1.83;;;14.50;99.90;;;;;;4900422;28;227735;-71
2022/06/07 11:26:58;;;;;;;9.18;1.90;;;14.60;99.90;;;;;;4963260;28;20058;-71
2022/06/07 11:29:32;;;;;;;12.05;2.25;;;14.80;99.90;;;;;;4903319;28;164679;-70
2022/06/07 11:32:02;;;;;;;10.90;2.10;;;15.10;99.90;;;;;;4949659;28;20055;-70
2022/06/07 11:34:34;;;;;;;12.38;2.20;;;15.20;99.90;;;;;;4889578;28;206271;-70
2022/06/07 11:37:08;;;;;;;11.50;1.90;;;15.40;99.90;;;;;;4959743;28;20058;-69
2022/06/07 11:39:40;;;;;;;10.57;2.00;;;15.40;99.90;;;;;;4904090;28;206641;-70
2022/06/07 11:42:25;;;;;;;10.93;1.90;;;15.60;99.90;;;;;;4944535;28;20088;-70
2022/06/07 11:45:06;;;;;;;14.43;1.98;;;15.60;99.90;;;;;;4908327;28;218408;-70
2022/06/07 11:48:10;;;;;;;11.13;2.03;;;15.40;99.90;;;;;;4968178;28;20041;-70
2022/06/07 11:50:41;;;;;;;11.63;1.85;;;15.50;99.90;;;;;;4973338;28;205683;-70
2022/06/07 11:53:35;;;;;;;12.52;2.10;;;15.60;99.90;;;;;;5026736;28;20064;-69
2022/06/07 11:56:38;;;;;;;13.70;2.30;;;15.90;99.90;;;;;;4937862;28;218866;-70
2022/06/07 11:59:25;;;;;;;12.77;1.95;;;16.10;99.90;;;;;;4963301;28;206346;-68
2022/06/07 12:01:54;;;;;;;11.85;2.28;;;16.10;99.90;;;;;;5025303;28;20084;-71
2022/06/07 12:04:41;;;;;;;16.20;2.30;;;16.00;99.90;;;;;;4958095;28;213056;-69
2022/06/07 12:07:18;;;;;;;11.05;2.05;;;15.90;99.90;;;;;;5026156;28;20081;-70
2022/06/07 12:10:12;;;;;;;13.25;2.30;;;16.00;99.90;;;;;;4955019;28;245898;-69
2022/06/07 12:12:38;;;;;;;13.65;2.35;;;15.90;99.90;;;;;;5025787;28;20110;-69
2022/06/07 12:15:18;;;;;;;14.60;2.50;;;15.70;99.90;;;;;;4957490;28;207013;-69
2022/06/07 12:18:16;;;;;;;12.80;2.22;;;15.60;99.90;;;;;;5025142;28;20049;-71
2022/06/07 12:20:51;;;;;;;13.43;2.20;;;15.70;99.90;;;;;;4931388;28;230671;-70
2022/06/07 12:23:29;;;;;;;11.90;2.20;;;15.80;99.90;;;;;;4999567;28;20154;-71
2022/06/07 12:26:00;;;;;;;11.65;1.88;;;15.80;99.90;;;;;;4927337;28;307717;-70
2022/06/07 12:28:30;;;;;;;9.70;1.67;;;15.90;99.90;;;;;;4990008;28;28041;-69
2022/06/07 12:30:57;;;;;;;12.68;2.33;;;15.80;99.90;;;;;;4918093;28;211056;-70
2022/06/07 12:33:28;;;;;;;11.75;2.13;;;16.10;99.90;;;;;;5004875;28;20058;-70
2022/06/07 12:35:59;;;;;;;9.25;1.98;;;16.10;99.90;;;;;;4938072;28;237190;-70
2022/06/07 12:38:30;;;;;;;11.82;2.15;;;16.40;99.90;;;;;;4993584;28;76299;-69
2022/06/07 12:41:05;;;;;;;13.73;2.60;;;16.40;99.90;;;;;;4949518;28;118381;-70
2022/06/07 12:43:37;;;;;;;11.13;2.05;;;16.40;99.90;;;;;;4958738;28;177492;-71
2022/06/07 12:46:07;;;;;;;11.57;2.25;;;16.40;99.90;;;;;;4975620;28;171854;-71
2022/06/07 12:48:40;;;;;;;13.15;2.30;;;16.70;99.90;;;;;;4934209;28;206620;-69
2022/06/07 12:51:19;;;;;;;11.60;1.90;;;17.20;99.90;;;;;;4982154;28;137010;-70
2022/06/07 12:53:48;;;;;;;9.67;1.90;;;17.70;99.90;;;;;;4951606;28;208158;-69
2022/06/07 12:56:17;;;;;;;9.68;1.73;;;17.90;99.90;;;;;;4984001;28;68934;-70
2022/06/07 12:58:52;;;;;;;10.45;1.92;;;17.70;99.90;;;;;;4975363;28;210044;-70
2022/06/07 13:01:23;;;;;;;12.30;2.03;;;17.60;99.90;;;;;;5021645;28;241758;-71
2022/06/07 13:03:50;;;;;;;;;;;17.60;99.90;;;;;;4984461;28;209833;-71
2022/06/07 13:06:19;;;;;;;9.35;2.08;;;17.80;99.90;;;;;;5008294;28;152342;-71
2022/06/07 13:09:04;;;;;;;9.88;2.05;;;18.10;99.90;;;;;;4987602;28;223734;-70
2022/06/07 13:11:34;;;;;;;9.43;1.80;;;17.90;99.90;;;;;;5011262;28;20374;-70